createdAt,value
2019-03-05T00:00:54.531Z,6.97
2019-03-05T00:03:22.920Z,6.70
2019-03-05T00:05:51.324Z,6.50
2019-03-05T00:08:19.727Z,5.57
2019-03-05T00:10:48.137Z,7.73
2019-03-05T00:13:16.558Z,7.57
2019-03-05T00:15:46.427Z,5.53
2019-03-05T00:18:14.812Z,7.37
2019-03-05T00:20:43.320Z,7.57
2019-03-05T00:23:11.810Z,7.03
2019-03-05T00:25:40.230Z,6.57
2019-03-05T00:28:29.928Z,7.50
2019-03-05T00:31:13.794Z,6.50
2019-03-05T00:33:54.087Z,8.30
2019-03-05T00:36:34.645Z,6.53
2019-03-05T00:39:18.179Z,6.00
2019-03-05T00:41:55.730Z,6.30
2019-03-05T00:44:33.017Z,7.20
2019-03-05T00:47:12.736Z,5.97
2019-03-05T00:49:46.896Z,3.53
2019-03-05T00:52:33.479Z,3.37
2019-03-05T00:55:04.980Z,4.93
2019-03-05T00:57:54.776Z,6.37
2019-03-05T01:00:31.972Z,3.97
2019-03-05T01:03:24.170Z,5.07
2019-03-05T01:06:01.405Z,1.03
2019-03-05T01:08:31.241Z,2.37
2019-03-05T01:10:59.796Z,1.60
2019-03-05T01:13:28.296Z,4.90
2019-03-05T01:15:56.689Z,1.07
2019-03-05T01:18:25.168Z,1.07
2019-03-05T01:20:53.643Z,1.57
2019-03-05T01:23:22.067Z,1.00
2019-03-05T01:25:50.830Z,2.43
2019-03-05T01:28:19.212Z,2.03
2019-03-05T01:31:07.387Z,2.20
2019-03-05T01:33:40.132Z,2.03
2019-03-05T01:36:16.206Z,2.83
2019-03-05T01:38:46.265Z,2.13
2019-03-05T01:41:14.659Z,1.33
2019-03-05T01:43:43.054Z,1.17
2019-03-05T01:46:11.468Z,0.73
2019-03-05T01:48:39.850Z,1.23
2019-03-05T01:51:08.241Z,2.07
2019-03-05T01:53:36.662Z,1.33
2019-03-05T01:56:05.061Z,1.40
2019-03-05T01:58:33.452Z,0.67
2019-03-05T02:01:01.881Z,2.27
2019-03-05T02:03:30.265Z,0.90
2019-03-05T02:05:58.661Z,0.87
2019-03-05T02:08:27.072Z,1.03
2019-03-05T02:10:55.495Z,1.50
2019-03-05T02:13:23.894Z,0.53
2019-03-05T02:15:52.348Z,1.03
2019-03-05T02:18:22.873Z,1.97
2019-03-05T02:20:51.268Z,1.57
2019-03-05T02:23:28.705Z,0.63
2019-03-05T02:26:00.224Z,1.90
2019-03-05T02:28:53.072Z,0.57
2019-03-05T02:31:59.865Z,0.40
2019-03-05T02:34:42.935Z,0.50
2019-03-05T02:37:29.307Z,3.67
2019-03-05T02:40:00.864Z,1.93
2019-03-05T02:42:34.988Z,1.90
2019-03-05T02:45:23.017Z,2.20
2019-03-05T02:48:11.916Z,2.87
2019-03-05T02:51:11.826Z,2.47
2019-03-05T02:53:51.814Z,3.87
2019-03-05T02:56:38.719Z,3.03
2019-03-05T02:59:06.084Z,2.83
2019-03-05T03:01:42.193Z,2.03
2019-03-05T03:04:12.430Z,2.60
2019-03-05T03:06:40.837Z,2.93
2019-03-05T03:09:21.852Z,2.30
2019-03-05T03:11:50.307Z,2.77
2019-03-05T03:14:18.705Z,4.93
2019-03-05T03:16:47.395Z,2.73
2019-03-05T03:19:15.797Z,4.23
2019-03-05T03:21:44.226Z,4.77
2019-03-05T03:24:12.703Z,3.83
2019-03-05T03:26:41.098Z,5.27
2019-03-05T03:29:09.490Z,6.23
2019-03-05T03:31:37.927Z,6.77
2019-03-05T03:34:06.455Z,4.27
2019-03-05T03:36:34.850Z,3.33
2019-03-05T03:39:04.792Z,5.73
2019-03-05T03:41:34.230Z,6.67
2019-03-05T03:44:02.647Z,4.83
2019-03-05T03:46:31.083Z,4.80
2019-03-05T03:48:59.478Z,7.50
2019-03-05T03:51:27.876Z,5.40
2019-03-05T03:53:56.317Z,4.53
2019-03-05T03:56:24.701Z,4.33
2019-03-05T03:58:53.100Z,5.53
2019-03-05T04:01:21.531Z,5.53
2019-03-05T04:03:49.932Z,5.50
2019-03-05T04:06:18.377Z,8.70
2019-03-05T04:08:46.768Z,8.47
2019-03-05T04:11:15.170Z,4.50
2019-03-05T04:13:43.705Z,4.37
2019-03-05T04:16:12.106Z,9.57
2019-03-05T04:18:40.513Z,7.43
2019-03-05T04:21:09.222Z,4.57
2019-03-05T04:23:37.610Z,6.97
2019-03-05T04:26:06.010Z,7.33
2019-03-05T04:28:34.457Z,5.13
2019-03-05T04:31:02.846Z,3.37
2019-03-05T04:33:31.303Z,5.90
2019-03-05T04:35:59.737Z,4.40
2019-03-05T04:38:28.134Z,8.27
2019-03-05T04:40:56.544Z,8.23
2019-03-05T04:43:24.981Z,5.47
2019-03-05T04:45:55.015Z,5.23
2019-03-05T04:48:23.413Z,5.53
2019-03-05T04:51:05.564Z,6.07
2019-03-05T04:53:33.958Z,6.53
2019-03-05T04:56:02.425Z,3.00
2019-03-05T04:58:31.082Z,7.30
2019-03-05T05:00:59.482Z,6.30
2019-03-05T05:03:27.875Z,6.17
2019-03-05T05:05:56.316Z,5.20
2019-03-05T05:08:24.722Z,5.47
2019-03-05T05:10:53.112Z,3.80
2019-03-05T05:13:21.549Z,2.77
2019-03-05T05:15:49.949Z,7.27
2019-03-05T05:18:18.366Z,4.87
2019-03-05T05:20:46.808Z,4.77
2019-03-05T05:23:15.246Z,4.93
2019-03-05T05:25:43.650Z,5.03
2019-03-05T05:28:12.060Z,5.43
2019-03-05T05:30:42.211Z,3.63
2019-03-05T05:33:10.616Z,5.07
2019-03-05T05:35:39.186Z,3.20
2019-03-05T05:38:07.630Z,3.97
2019-03-05T05:40:38.470Z,4.97
2019-03-05T05:43:09.923Z,3.13
2019-03-05T05:45:46.750Z,5.20
2019-03-05T05:48:15.211Z,3.33
2019-03-05T05:50:43.821Z,6.87
2019-03-05T05:53:12.231Z,4.57
2019-03-05T05:55:40.622Z,3.47
2019-03-05T05:58:09.469Z,5.30
2019-03-05T06:00:39.587Z,5.43
2019-03-05T06:03:07.978Z,3.33
2019-03-05T06:05:36.437Z,4.27
2019-03-05T06:08:04.822Z,5.63
2019-03-05T06:10:33.223Z,3.10
2019-03-05T06:13:01.666Z,5.00
2019-03-05T06:15:30.059Z,4.23
2019-03-05T06:17:58.467Z,3.80
2019-03-05T06:20:27.955Z,5.17
2019-03-05T06:22:56.516Z,3.00
2019-03-05T06:25:24.903Z,8.60
2019-03-05T06:27:53.444Z,3.23
2019-03-05T06:30:24.054Z,4.10
2019-03-05T06:32:52.461Z,5.27
2019-03-05T06:35:21.456Z,5.90
2019-03-05T06:37:49.860Z,3.13
2019-03-05T06:40:20.462Z,4.50
2019-03-05T06:42:49.202Z,4.27
2019-03-05T06:45:18.833Z,3.83
2019-03-05T06:47:47.234Z,4.40
2019-03-05T06:50:20.833Z,2.95
2019-03-05T06:52:49.229Z,3.80
2019-03-05T06:55:17.738Z,4.50
2019-03-05T06:57:46.150Z,3.47
2019-03-05T07:00:32.931Z,2.93
2019-03-05T07:03:01.391Z,2.83
2019-03-05T07:06:06.222Z,2.30
2019-03-05T07:08:36.170Z,4.63
2019-03-05T07:11:37.705Z,4.57
2019-03-05T07:14:24.604Z,3.53
2019-03-05T07:16:56.171Z,2.37
2019-03-05T07:19:26.909Z,5.07
2019-03-05T07:22:04.294Z,4.47
2019-03-05T07:24:46.168Z,3.00
2019-03-05T07:27:23.030Z,2.03
2019-03-05T07:29:51.703Z,3.93
2019-03-05T07:32:20.111Z,2.27
2019-03-05T07:34:50.195Z,2.07
2019-03-05T07:37:18.599Z,3.13
2019-03-05T07:39:47.015Z,1.47
2019-03-05T07:42:15.451Z,1.82
2019-03-05T07:44:43.901Z,2.53
2019-03-05T07:47:12.312Z,2.17
2019-03-05T07:49:44.061Z,3.27
2019-03-05T07:52:10.882Z,2.67
2019-03-05T07:54:39.291Z,3.53
2019-03-05T07:57:07.767Z,2.20
2019-03-05T07:59:36.389Z,2.67
2019-03-05T08:02:04.782Z,1.77
2019-03-05T08:04:33.177Z,1.37
2019-03-05T08:07:01.658Z,1.83
2019-03-05T08:09:32.163Z,1.33
2019-03-05T08:12:12.330Z,1.87
2019-03-05T08:14:49.789Z,1.47
2019-03-05T08:17:19.214Z,1.20
2019-03-05T08:19:47.609Z,2.20
2019-03-05T08:22:16.017Z,1.30
2019-03-05T08:24:44.463Z,0.50
2019-03-05T08:27:12.866Z,1.50
2019-03-05T08:29:41.277Z,1.20
2019-03-05T08:32:09.715Z,0.50
2019-03-05T08:34:38.151Z,0.83
2019-03-05T08:37:06.555Z,0.43
2019-03-05T08:39:34.992Z,0.87
2019-03-05T08:42:03.391Z,1.03
2019-03-05T08:44:31.835Z,0.50
2019-03-05T08:47:00.257Z,0.83
2019-03-05T08:49:28.643Z,0.50
2019-03-05T08:51:57.084Z,1.33
2019-03-05T08:54:25.480Z,1.00
2019-03-05T08:56:53.917Z,0.87
2019-03-05T08:59:22.351Z,0.40
2019-03-05T09:01:50.787Z,1.03
2019-03-05T09:04:19.238Z,0.57
2019-03-05T09:06:48.302Z,0.90
2019-03-05T09:09:17.723Z,0.40
2019-03-05T09:11:46.392Z,0.93
2019-03-05T09:14:14.782Z,0.63
2019-03-05T09:16:43.342Z,0.80
2019-03-05T09:19:11.795Z,0.30
2019-03-05T09:21:40.242Z,1.67
2019-03-05T09:24:08.637Z,0.53
2019-03-05T09:26:37.146Z,0.40
2019-03-05T09:29:05.534Z,0.40
2019-03-05T09:31:33.935Z,0.60
2019-03-05T09:34:02.438Z,0.50
2019-03-05T09:36:30.878Z,0.30
2019-03-05T09:38:59.289Z,0.90
2019-03-05T09:41:27.742Z,0.40
2019-03-05T09:43:56.145Z,0.70
2019-03-05T09:46:24.554Z,0.40
2019-03-05T09:48:53.014Z,0.53
2019-03-05T09:51:21.413Z,0.40
2019-03-05T09:53:49.863Z,0.30
2019-03-05T09:56:18.355Z,0.40
2019-03-05T09:58:46.763Z,1.10
2019-03-05T10:01:15.598Z,0.37
2019-03-05T10:03:44.394Z,1.50
2019-03-05T10:06:12.794Z,0.60
2019-03-05T10:08:41.203Z,0.63
2019-03-05T10:11:09.635Z,0.50
2019-03-05T10:13:38.046Z,0.73
2019-03-05T10:16:06.682Z,0.50
2019-03-05T10:18:35.170Z,1.47
2019-03-05T10:21:04.181Z,0.50
2019-03-05T10:23:32.578Z,0.50
2019-03-05T10:26:01.055Z,0.30
2019-03-05T10:28:29.614Z,0.30
2019-03-05T10:30:58.065Z,0.50
2019-03-05T10:33:26.467Z,0.43
2019-03-05T10:35:54.866Z,0.73
2019-03-05T10:38:23.308Z,0.60
2019-03-05T10:40:53.638Z,0.33
2019-03-05T10:43:22.158Z,0.70
2019-03-05T10:45:50.628Z,0.50
2019-03-05T10:48:24.186Z,0.33
2019-03-05T10:50:52.977Z,0.50
2019-03-05T10:53:22.082Z,0.50
2019-03-05T10:55:50.574Z,0.50
2019-03-05T10:58:19.162Z,0.47
2019-03-05T11:00:52.329Z,0.37
2019-03-05T11:03:23.175Z,1.13
2019-03-05T11:05:51.973Z,0.40
2019-03-05T11:08:25.299Z,1.72
2019-03-05T11:10:54.033Z,0.40
2019-03-05T11:13:22.496Z,0.87
2019-03-05T11:15:56.859Z,0.40
2019-03-05T11:18:29.333Z,0.53
2019-03-05T11:20:55.756Z,0.40
2019-03-05T11:23:24.151Z,0.37
2019-03-05T11:25:52.594Z,0.47
2019-03-05T11:28:21.045Z,0.40
2019-03-05T11:30:49.878Z,0.97
2019-03-05T11:33:18.362Z,0.50
2019-03-05T11:35:46.903Z,0.50
2019-03-05T11:38:15.643Z,0.78
2019-03-05T11:40:44.053Z,0.60
2019-03-05T11:43:15.190Z,2.10
2019-03-05T11:45:44.063Z,1.77
2019-03-05T11:48:12.886Z,0.53
2019-03-05T11:50:41.456Z,0.60
2019-03-05T11:53:09.866Z,1.50
2019-03-05T11:55:38.312Z,0.97
2019-03-05T11:58:07.896Z,1.93
2019-03-05T12:00:54.645Z,1.27
2019-03-05T12:03:23.070Z,0.67
2019-03-05T12:05:51.470Z,1.70
2019-03-05T12:08:20.040Z,3.47
2019-03-05T12:10:48.509Z,0.87
2019-03-05T12:13:18.811Z,4.10
2019-03-05T12:15:47.327Z,1.70
2019-03-05T12:18:15.750Z,1.80
2019-03-05T12:20:44.155Z,1.00
2019-03-05T12:23:12.613Z,3.33
2019-03-05T12:25:42.078Z,2.20
2019-03-05T12:28:11.150Z,0.87
2019-03-05T12:30:40.070Z,1.10
2019-03-05T12:33:08.623Z,1.73
2019-03-05T12:35:37.389Z,2.63
2019-03-05T12:38:06.087Z,1.70
2019-03-05T12:40:34.728Z,2.47
2019-03-05T12:43:03.398Z,0.70
2019-03-05T12:45:31.962Z,2.63
2019-03-05T12:48:00.440Z,0.63
2019-03-05T12:50:33.946Z,0.60
2019-03-05T12:53:02.426Z,1.00
2019-03-05T12:55:30.827Z,0.70
2019-03-05T12:57:59.699Z,1.27
2019-03-05T13:00:34.191Z,1.50
2019-03-05T13:03:02.866Z,0.50
2019-03-05T13:05:31.307Z,0.57
2019-03-05T13:07:59.706Z,0.70
2019-03-05T13:10:34.777Z,1.77
2019-03-05T13:13:01.426Z,0.60
2019-03-05T13:15:35.158Z,1.03
2019-03-05T13:18:04.038Z,1.20
2019-03-05T13:20:32.506Z,0.90
2019-03-05T13:23:00.949Z,1.70
2019-03-05T13:25:29.983Z,1.03
2019-03-05T13:28:01.931Z,1.40
2019-03-05T13:30:30.231Z,0.73
2019-03-05T13:33:00.560Z,1.17
2019-03-05T13:35:30.233Z,1.33
2019-03-05T13:38:09.710Z,1.07
2019-03-05T13:40:40.273Z,2.63
2019-03-05T13:43:08.497Z,1.77
2019-03-05T13:45:36.937Z,1.40
2019-03-05T13:48:28.082Z,1.77
2019-03-05T13:51:19.462Z,2.43
2019-03-05T13:54:09.528Z,1.63
2019-03-05T13:56:55.342Z,2.40
2019-03-05T13:59:34.557Z,1.23
2019-03-05T14:02:03.193Z,0.77
2019-03-05T14:04:37.375Z,2.27
2019-03-05T14:07:25.223Z,1.13
2019-03-05T14:09:53.921Z,1.30
2019-03-05T14:12:22.503Z,1.00
2019-03-05T14:14:50.936Z,1.90
2019-03-05T14:17:21.026Z,3.03
2019-03-05T14:19:50.119Z,0.73
2019-03-05T14:22:18.608Z,2.00
2019-03-05T14:24:47.072Z,2.13
2019-03-05T14:27:16.115Z,3.20
2019-03-05T14:29:44.542Z,2.13
2019-03-05T14:32:13.055Z,1.60
2019-03-05T14:34:41.726Z,3.27
2019-03-05T14:37:10.127Z,1.43
2019-03-05T14:39:38.609Z,2.80
2019-03-05T14:42:08.094Z,1.27
2019-03-05T14:44:40.232Z,2.67
2019-03-05T14:47:07.669Z,1.10
2019-03-05T14:49:36.124Z,1.87
2019-03-05T14:52:05.759Z,2.30
2019-03-05T14:54:34.167Z,2.43
2019-03-05T14:57:02.890Z,2.17
2019-03-05T14:59:31.441Z,0.90
2019-03-05T15:02:02.160Z,2.93
2019-03-05T15:04:30.109Z,4.73
2019-03-05T15:06:58.586Z,2.50
2019-03-05T15:09:27.039Z,2.70
2019-03-05T15:11:55.774Z,1.97
2019-03-05T15:14:24.227Z,1.33
2019-03-05T15:16:52.622Z,3.20
2019-03-05T15:19:22.000Z,3.53
2019-03-05T15:21:50.543Z,2.80
2019-03-05T15:24:19.025Z,2.83
2019-03-05T15:26:47.636Z,1.97
2019-03-05T15:29:16.087Z,1.60
2019-03-05T15:31:44.620Z,4.10
2019-03-05T15:34:13.151Z,2.40
2019-03-05T15:36:41.652Z,2.60
2019-03-05T15:39:10.144Z,3.00
2019-03-05T15:41:38.612Z,4.37
2019-03-05T15:44:08.014Z,3.80
2019-03-05T15:46:36.774Z,3.50
2019-03-05T15:49:05.263Z,4.07
2019-03-05T15:51:33.776Z,3.87
2019-03-05T15:54:02.254Z,2.53
2019-03-05T15:56:30.667Z,2.87
2019-03-05T15:58:59.440Z,3.80
2019-03-05T16:01:28.181Z,2.67
2019-03-05T16:03:57.199Z,1.57
2019-03-05T16:06:29.965Z,3.17
2019-03-05T16:08:57.953Z,6.27
2019-03-05T16:11:30.246Z,3.17
2019-03-05T16:13:58.031Z,2.17
2019-03-05T16:16:26.574Z,2.93
2019-03-05T16:18:54.984Z,2.33
2019-03-05T16:21:23.420Z,2.80
2019-03-05T16:23:51.870Z,2.40
2019-03-05T16:26:23.686Z,1.90
2019-03-05T16:28:50.471Z,4.53
2019-03-05T16:31:21.815Z,3.07
2019-03-05T16:33:57.698Z,3.60
2019-03-05T16:36:33.506Z,5.15
2019-03-05T16:39:10.476Z,2.90
2019-03-05T16:41:40.831Z,3.23
2019-03-05T16:44:14.006Z,2.80
2019-03-05T16:47:02.474Z,3.73
2019-03-05T16:49:35.744Z,4.07
2019-03-05T16:52:18.052Z,5.13
2019-03-05T16:54:48.183Z,3.77
2019-03-05T16:57:34.985Z,4.13
2019-03-05T17:00:23.011Z,5.77
2019-03-05T17:02:53.101Z,3.30
2019-03-05T17:05:30.366Z,5.20
2019-03-05T17:08:03.121Z,4.53
2019-03-05T17:10:51.980Z,3.93
2019-03-05T17:13:20.384Z,2.30
2019-03-05T17:15:48.781Z,5.87
2019-03-05T17:18:17.212Z,2.25
2019-03-05T17:20:46.018Z,3.00
2019-03-05T17:23:14.415Z,4.37
2019-03-05T17:25:42.814Z,3.63
2019-03-05T17:28:11.261Z,4.77
2019-03-05T17:30:39.666Z,2.87
2019-03-05T17:33:08.059Z,3.73
2019-03-05T17:35:36.579Z,3.03
2019-03-05T17:38:05.414Z,5.20
2019-03-05T17:40:33.818Z,2.80
2019-03-05T17:43:02.264Z,3.40
2019-03-05T17:45:31.314Z,4.37
2019-03-05T17:47:59.722Z,4.43
2019-03-05T17:50:28.167Z,4.73
2019-03-05T17:52:56.566Z,4.43
2019-03-05T17:55:27.359Z,5.43
2019-03-05T17:57:55.901Z,4.50
2019-03-05T18:00:31.867Z,4.37
2019-03-05T18:03:00.485Z,5.80
2019-03-05T18:05:28.928Z,3.50
2019-03-05T18:07:57.406Z,4.60
2019-03-05T18:10:26.359Z,4.77
2019-03-05T18:12:55.109Z,4.40
2019-03-05T18:15:23.555Z,3.67
2019-03-05T18:17:52.025Z,6.17
2019-03-05T18:20:21.612Z,5.73
2019-03-05T18:22:50.319Z,5.00
2019-03-05T18:25:19.461Z,5.83
2019-03-05T18:27:48.298Z,6.33
2019-03-05T18:30:22.196Z,4.40
2019-03-05T18:32:50.816Z,5.53
2019-03-05T18:35:19.514Z,4.10
2019-03-05T18:37:50.704Z,5.80
2019-03-05T18:40:24.222Z,4.83
2019-03-05T18:42:53.552Z,6.87
2019-03-05T18:45:25.095Z,5.70
2019-03-05T18:47:53.548Z,5.93
2019-03-05T18:50:22.575Z,6.37
2019-03-05T18:52:55.415Z,4.70
2019-03-05T18:55:24.921Z,4.90
2019-03-05T18:57:53.581Z,5.80
2019-03-05T19:00:24.697Z,5.90
2019-03-05T19:03:01.594Z,3.83
2019-03-05T19:05:30.004Z,3.17
2019-03-05T19:07:58.586Z,3.47
2019-03-05T19:10:27.202Z,2.97
2019-03-05T19:12:55.645Z,4.00
2019-03-05T19:15:28.422Z,2.80
2019-03-05T19:17:56.870Z,4.20
2019-03-05T19:20:26.606Z,3.83
2019-03-05T19:22:55.250Z,5.33
2019-03-05T19:25:32.182Z,4.00
2019-03-05T19:28:00.630Z,3.13
2019-03-05T19:30:46.853Z,3.43
2019-03-05T19:33:15.287Z,2.30
2019-03-05T19:35:43.760Z,4.60
2019-03-05T19:38:12.255Z,3.05
2019-03-05T19:40:45.357Z,3.53
2019-03-05T19:43:13.763Z,4.47
2019-03-05T19:45:42.307Z,3.27
2019-03-05T19:48:10.989Z,4.27
2019-03-05T19:50:39.402Z,2.33
2019-03-05T19:53:07.792Z,3.23
2019-03-05T19:55:36.920Z,3.73
2019-03-05T19:58:08.750Z,3.97
2019-03-05T20:00:57.003Z,4.63
2019-03-05T20:03:25.463Z,3.87
2019-03-05T20:05:53.935Z,6.53
2019-03-05T20:08:22.369Z,3.87
2019-03-05T20:10:50.785Z,3.90
2019-03-05T20:13:19.279Z,5.17
2019-03-05T20:15:47.986Z,5.00
2019-03-05T20:18:16.394Z,3.90
2019-03-05T20:20:44.834Z,5.67
2019-03-05T20:23:13.305Z,4.17
2019-03-05T20:25:41.806Z,3.20
2019-03-05T20:28:10.206Z,5.60
2019-03-05T20:30:39.006Z,6.80
2019-03-05T20:33:07.410Z,4.30
2019-03-05T20:35:35.877Z,5.17
2019-03-05T20:38:05.147Z,6.97
2019-03-05T20:40:33.781Z,6.40
2019-03-05T20:43:03.378Z,3.67
2019-03-05T20:45:39.862Z,5.67
2019-03-05T20:48:08.265Z,7.33
2019-03-05T20:50:36.715Z,3.83
2019-03-05T20:53:05.123Z,5.73
2019-03-05T20:55:33.529Z,4.23
2019-03-05T20:58:02.311Z,6.13
2019-03-05T21:00:38.559Z,7.13
2019-03-05T21:03:11.429Z,6.80
2019-03-05T21:05:45.294Z,5.37
2019-03-05T21:08:14.038Z,6.67
2019-03-05T21:10:42.487Z,6.60
2019-03-05T21:13:11.199Z,5.63
2019-03-05T21:15:39.643Z,6.73
2019-03-05T21:18:13.328Z,5.23
2019-03-05T21:20:41.725Z,6.23
2019-03-05T21:23:10.183Z,5.67
2019-03-05T21:25:38.596Z,4.57
2019-03-05T21:28:07.901Z,5.30
2019-03-05T21:30:37.032Z,6.30
2019-03-05T21:33:05.431Z,4.00
2019-03-05T21:35:33.818Z,5.47
2019-03-05T21:38:02.266Z,4.10
2019-03-05T21:40:32.002Z,7.03
2019-03-05T21:43:00.413Z,4.10
2019-03-05T21:45:40.169Z,5.27
2019-03-05T21:48:08.572Z,6.87
2019-03-05T21:50:37.263Z,7.20
2019-03-05T21:53:06.044Z,6.00
2019-03-05T21:55:34.489Z,5.63
2019-03-05T21:58:02.971Z,4.50
2019-03-05T22:00:39.346Z,4.93
2019-03-05T22:03:07.773Z,3.83
2019-03-05T22:05:36.244Z,4.80
2019-03-05T22:08:04.678Z,7.43
2019-03-05T22:10:33.387Z,4.27
2019-03-05T22:13:01.888Z,4.27
2019-03-05T22:15:37.242Z,5.50
2019-03-05T22:18:05.741Z,5.00
2019-03-05T22:20:34.200Z,6.17
2019-03-05T22:23:02.606Z,4.97
2019-03-05T22:25:31.018Z,6.30
2019-03-05T22:27:59.458Z,4.63
2019-03-05T22:30:30.504Z,5.90
2019-03-05T22:32:58.946Z,5.43
2019-03-05T22:35:27.440Z,2.97
2019-03-05T22:37:55.902Z,4.43
2019-03-05T22:40:25.234Z,5.27
2019-03-05T22:42:53.679Z,4.80
2019-03-05T22:45:24.619Z,6.13
2019-03-05T22:47:53.427Z,6.63
2019-03-05T22:50:22.208Z,4.20
2019-03-05T22:52:51.078Z,4.77
2019-03-05T22:55:19.577Z,6.13
2019-03-05T22:57:47.992Z,5.50
2019-03-05T23:00:36.131Z,5.13
2019-03-05T23:03:07.033Z,6.73
2019-03-05T23:05:35.752Z,5.37
2019-03-05T23:08:04.548Z,6.73
2019-03-05T23:10:33.210Z,5.07
2019-03-05T23:13:01.952Z,5.93
2019-03-05T23:15:30.758Z,5.60
2019-03-05T23:17:59.164Z,6.40
2019-03-05T23:20:28.054Z,5.80
2019-03-05T23:22:56.726Z,4.87
2019-03-05T23:25:25.669Z,6.80
2019-03-05T23:27:54.116Z,5.50
2019-03-05T23:30:22.898Z,5.90
2019-03-05T23:32:54.585Z,6.77
2019-03-05T23:35:23.151Z,7.03
2019-03-05T23:37:51.561Z,6.07
2019-03-05T23:40:20.463Z,5.13
2019-03-05T23:42:48.933Z,6.60
2019-03-05T23:45:18.669Z,6.47
2019-03-05T23:47:47.500Z,6.07
2019-03-05T23:50:17.079Z,9.33
2019-03-05T23:52:45.821Z,6.63
2019-03-05T23:55:14.901Z,8.70
2019-03-05T23:57:43.695Z,7.13
